Terminal Aerodrome Forecast
Issued by NWS Rapid City, SD

Home | Current Version | Previous Version | Text Only | Print | Product List | Glossary Off
Versions: 1 2 3 4 5 6 7 8 9 10 11 12 13 14 15 16 17 18 19

000
FTUS43 KUNR 051130
TAFRAP
TAF
KRAP 051130Z 0512/0612 32015KT 5SM -SHSN BKN020
     FM051400 33027G37KT 5SM -SHSN BKN020
     FM051700 33027G37KT P6SM BKN040
     FM060100 33015G25KT P6SM SCT100=

USA.gov is the U.S. government's official web portal to all federal, state and local government web resources and services.